Time;durP1;ratioP1;P1;durP2;ratioP2;P2;SDS_P1;SDS_P2;PMS_P1;PMS_P2;Temp;Humidity;BMP_temperature;BMP_pressure;BME280_temperature;BME280_humidity;BME280_pressure;Samples;Min_cycle;Max_cycle;Signal;HPM_P1;HPM_P2
2023/12/27 00:01:03;;;;;;;13.20;3.40;;;;;;;7.02;71.59;98866.88;105848;1251;96604;-71
2023/12/27 00:03:47;;;;;;;;;;;;;;;7.01;71.60;98872.55;105916;1257;109035;-70
2023/12/27 00:06:15;;;;;;;11.10;3.40;;;;;;;6.98;71.58;98868.85;108758;1251;95472;-70
2023/12/27 00:08:43;;;;;;;7.10;3.00;;;;;;;6.95;71.70;98875.38;108758;1251;107618;-70
2023/12/27 00:11:11;;;;;;;8.60;2.80;;;;;;;6.93;71.65;98872.38;108688;1251;94449;-71
2023/12/27 00:13:39;;;;;;;11.90;3.30;;;;;;;6.92;71.47;98870.81;108758;1251;94291;-70
2023/12/27 00:16:07;;;;;;;9.80;3.20;;;;;;;6.91;71.34;98870.53;107557;1252;109176;-71
2023/12/27 00:18:35;;;;;;;10.10;3.10;;;;;;;6.89;71.49;98877.88;108661;1251;95155;-70
2023/12/27 00:21:04;;;;;;;11.70;3.30;;;;;;;6.87;71.32;98878.69;108737;1251;108164;-70
2023/12/27 00:23:32;;;;;;;11.80;3.60;;;;;;;6.87;71.35;98875.00;106540;1251;96591;-71
2023/12/27 00:26:00;;;;;;;13.40;3.30;;;;;;;6.84;71.27;98876.39;105840;1255;96578;-71
2023/12/27 00:28:28;;;;;;;9.70;3.20;;;;;;;6.82;71.30;98883.05;105375;1257;109930;-72
2023/12/27 00:30:56;;;;;;;10.10;3.60;;;;;;;6.80;71.27;98890.73;105612;1254;97800;-71
2023/12/27 00:33:24;;;;;;;9.50;3.20;;;;;;;6.77;71.13;98896.34;105857;1257;107871;-71
2023/12/27 00:35:53;;;;;;;10.00;4.00;;;;;;;6.73;71.38;98900.64;105674;1253;96631;-70
2023/12/27 00:38:21;;;;;;;13.70;4.00;;;;;;;6.71;71.29;98900.44;105588;1258;96600;-72
2023/12/27 00:40:49;;;;;;;10.50;3.10;;;;;;;6.69;71.31;98902.83;105741;1256;109832;-71
2023/12/27 00:43:17;;;;;;;13.20;3.80;;;;;;;6.66;71.18;98902.80;105505;1256;97826;-72
2023/12/27 00:45:46;;;;;;;11.70;3.60;;;;;;;6.67;71.19;98899.77;105687;1258;108083;-71
2023/12/27 00:48:13;;;;;;;14.00;3.60;;;;;;;6.68;71.12;98900.95;105397;1258;96671;-74
2023/12/27 00:50:42;;;;;;;14.00;3.20;;;;;;;6.68;71.28;98900.98;105737;1255;96613;-70
2023/12/27 00:53:09;;;;;;;12.00;3.60;;;;;;;6.67;71.23;98901.20;105512;1261;109864;-71
2023/12/27 00:55:38;;;;;;;11.60;3.50;;;;;;;6.68;71.08;98900.44;105612;1254;97013;-72
2023/12/27 00:58:05;;;;;;;15.00;3.60;;;;;;;6.68;71.09;98899.34;105763;1253;108667;-70
2023/12/27 01:00:33;;;;;;;10.20;3.50;;;;;;;6.69;71.42;98902.84;105229;1251;96723;-74
2023/12/27 01:03:02;;;;;;;14.90;4.00;;;;;;;6.68;71.08;98907.29;105492;1257;96587;-69
2023/12/27 01:05:30;;;;;;;11.50;3.40;;;;;;;6.69;71.05;98910.42;108547;1251;109869;-70
2023/12/27 01:07:58;;;;;;;10.00;3.90;;;;;;;6.70;71.07;98914.73;108737;1251;95522;-70
2023/12/27 01:10:27;;;;;;;10.30;3.70;;;;;;;6.73;71.26;98922.02;108693;1253;107566;-71
2023/12/27 01:12:56;;;;;;;11.30;3.60;;;;;;;6.74;70.96;98913.44;108712;1253;94338;-71
2023/12/27 01:15:24;;;;;;;12.00;3.30;;;;;;;6.76;70.98;98917.73;108719;1251;94502;-70
2023/12/27 01:17:52;;;;;;;10.80;3.30;;;;;;;6.78;70.99;98913.95;105827;1254;109936;-71
2023/12/27 01:20:20;;;;;;;11.10;3.50;;;;;;;6.80;70.71;98909.41;105619;1267;96554;-71
2023/12/27 01:22:48;;;;;;;10.00;3.20;;;;;;;6.83;70.84;98908.20;105543;1257;107594;-71
2023/12/27 01:25:16;;;;;;;9.80;3.10;;;;;;;6.84;70.65;98904.92;105534;1257;97834;-71
2023/12/27 01:27:46;;;;;;;8.80;3.70;;;;;;;6.87;70.70;98904.45;105535;1256;97803;-71
2023/12/27 01:30:17;;;;;;;9.40;3.00;;;;;;;6.88;70.83;98907.19;105515;1259;109584;-70
2023/12/27 01:32:45;;;;;;;8.80;3.00;;;;;;;6.88;70.63;98905.79;105543;1252;96549;-71
2023/12/27 01:35:13;;;;;;;12.80;3.30;;;;;;;6.88;70.53;98910.53;105601;1254;106112;-72
2023/12/27 01:37:42;;;;;;;7.50;3.30;;;;;;;6.87;70.54;98914.30;105328;1255;96689;-72
2023/12/27 01:40:11;;;;;;;6.70;3.00;;;;;;;6.86;70.70;98916.30;105532;1253;96578;-71
2023/12/27 01:42:39;;;;;;;9.40;3.00;;;;;;;6.82;70.59;98915.79;105472;1257;108741;-72
2023/12/27 01:45:07;;;;;;;8.70;3.20;;;;;;;6.80;70.55;98918.08;105692;1257;96537;-71
2023/12/27 01:47:37;;;;;;;6.70;2.90;;;;;;;6.75;70.49;98923.11;105476;1251;107179;-71
2023/12/27 01:50:09;;;;;;;11.20;3.20;;;;;;;6.68;70.25;98923.33;105523;1256;96602;-71
2023/12/27 01:52:39;;;;;;;11.70;3.10;;;;;;;6.63;70.10;98922.54;105522;1256;96601;-71
2023/12/27 01:55:12;;;;;;;9.20;3.20;;;;;;;6.60;70.17;98918.02;105230;1251;109623;-72
2023/12/27 01:57:41;;;;;;;8.70;3.10;;;;;;;6.57;70.12;98917.64;105510;1256;96599;-71
2023/12/27 02:00:10;;;;;;;7.00;2.50;;;;;;;6.52;70.31;98916.15;105564;1253;107353;-71
2023/12/27 02:02:38;;;;;;;10.00;3.10;;;;;;;6.49;70.09;98921.77;107388;1252;96501;-71
2023/12/27 02:05:06;;;;;;;7.70;2.60;;;;;;;6.48;69.94;98918.86;106033;1251;96613;-71
2023/12/27 02:07:36;;;;;;;7.60;2.90;;;;;;;6.48;69.91;98913.57;105532;1253;109920;-72
2023/12/27 02:10:06;;;;;;;8.50;2.60;;;;;;;6.49;69.86;98914.08;105633;1256;96514;-70
2023/12/27 02:12:34;;;;;;;10.00;2.90;;;;;;;6.47;69.87;98917.85;105522;1254;108071;-71
2023/12/27 02:15:02;;;;;;;9.90;3.00;;;;;;;6.44;69.92;98916.61;105554;1257;96629;-70
2023/12/27 02:17:30;;;;;;;12.20;3.20;;;;;;;6.43;69.83;98923.89;105250;1256;97806;-71
2023/12/27 02:19:59;;;;;;;11.60;2.60;;;;;;;6.43;69.77;98919.84;105401;1255;109874;-71
2023/12/27 02:22:30;;;;;;;11.60;2.90;;;;;;;6.41;69.86;98921.02;105303;1256;97420;-72
2023/12/27 02:24:59;;;;;;;8.60;3.00;;;;;;;6.38;69.43;98928.20;105434;1256;107735;-70
2023/12/27 02:27:26;;;;;;;10.80;3.90;;;;;;;6.38;69.51;98931.23;105466;1251;96674;-71
2023/12/27 02:29:54;;;;;;;7.40;2.90;;;;;;;6.39;69.26;98929.60;105292;1253;96606;-72
2023/12/27 02:32:23;;;;;;;6.60;2.50;;;;;;;6.40;69.29;98941.16;105337;1258;110573;-71
2023/12/27 02:34:52;;;;;;;10.00;2.90;;;;;;;6.38;69.20;98935.26;105425;1252;96651;-72
2023/12/27 02:37:20;;;;;;;10.30;2.40;;;;;;;6.36;69.22;98949.63;105511;1256;107580;-71
2023/12/27 02:39:48;;;;;;;7.60;2.50;;;;;;;6.36;69.06;98946.65;105515;1251;96512;-71
2023/12/27 02:42:15;;;;;;;5.70;2.70;;;;;;;6.36;68.99;98945.61;105592;1254;96682;-71
2023/12/27 02:44:43;;;;;;;9.70;2.40;;;;;;;6.36;68.92;98951.57;105701;1253;109528;-71
2023/12/27 02:47:11;;;;;;;7.20;2.60;;;;;;;6.36;68.83;98950.55;105503;1255;97184;-72
2023/12/27 02:49:39;;;;;;;7.60;2.60;;;;;;;6.35;68.59;98947.60;105860;1267;107429;-71
2023/12/27 02:52:07;;;;;;;10.30;2.50;;;;;;;6.34;68.54;98945.56;105463;1254;97441;-71
2023/12/27 02:54:35;;;;;;;6.70;2.30;;;;;;;6.32;68.50;98951.65;105933;1251;96628;-72
2023/12/27 02:57:03;;;;;;;7.40;2.40;;;;;;;6.33;68.62;98948.44;105649;1256;110012;-70
2023/12/27 02:59:31;;;;;;;5.90;2.80;;;;;;;6.35;68.66;98961.52;105620;1257;96725;-72
2023/12/27 03:01:59;;;;;;;8.40;2.50;;;;;;;6.39;68.44;98955.63;105386;1257;107251;-71
2023/12/27 03:04:27;;;;;;;11.10;3.10;;;;;;;6.44;68.70;98958.56;105411;1251;96670;-71
2023/12/27 03:06:56;;;;;;;4.70;2.30;;;;;;;6.47;68.40;98955.59;105482;1257;96632;-71
2023/12/27 03:09:24;;;;;;;7.50;2.80;;;;;;;6.49;68.22;98963.20;105643;1251;109387;-71
2023/12/27 03:11:52;;;;;;;10.50;2.90;;;;;;;6.51;68.47;98961.48;105567;1251;96629;-72
2023/12/27 03:14:20;;;;;;;8.50;2.70;;;;;;;6.53;68.37;98964.53;105109;1270;107670;-70
2023/12/27 03:16:47;;;;;;;9.60;2.40;;;;;;;6.55;68.25;98969.16;105590;1251;96677;-71
2023/12/27 03:19:15;;;;;;;10.30;3.00;;;;;;;6.58;68.19;98975.02;105472;1257;96625;-70
2023/12/27 03:21:43;;;;;;;7.90;3.10;;;;;;;6.59;67.98;98974.23;105218;1257;110099;-70
2023/12/27 03:24:11;;;;;;;10.60;3.10;;;;;;;6.61;68.07;98984.88;105361;1256;98044;-70
2023/12/27 03:26:39;;;;;;;8.30;2.50;;;;;;;6.63;68.17;98988.83;105316;1257;106734;-71
2023/12/27 03:29:07;;;;;;;9.20;2.80;;;;;;;6.64;67.86;99006.92;105411;1256;96744;-71
2023/12/27 03:31:35;;;;;;;9.30;2.70;;;;;;;6.66;67.89;99018.45;105562;1251;96529;-71
2023/12/27 03:34:03;;;;;;;4.70;2.00;;;;;;;6.65;67.72;99075.06;105529;1256;109955;-72
2023/12/27 03:36:31;;;;;;;6.00;1.90;;;;;;;6.42;67.39;99092.02;105659;1254;96650;-71
2023/12/27 03:38:59;;;;;;;10.60;3.50;;;;;;;5.96;67.65;99093.21;105656;1251;107611;-71
2023/12/27 03:41:27;;;;;;;6.60;2.60;;;;;;;5.57;67.92;99116.36;105350;1255;97973;-70
2023/12/27 03:43:58;;;;;;;2.30;1.30;;;;;;;5.24;68.04;99098.45;105314;1256;96587;-71
2023/12/27 03:46:26;;;;;;;1.00;0.90;;;;;;;4.95;68.06;99083.00;105251;1257;109692;-71
2023/12/27 03:48:54;;;;;;;3.20;0.90;;;;;;;4.81;68.14;99089.36;105521;1257;96693;-70
2023/12/27 03:51:22;;;;;;;2.60;1.30;;;;;;;4.71;68.83;99088.73;105423;1256;107689;-71
2023/12/27 03:53:50;;;;;;;6.00;1.50;;;;;;;4.64;69.07;99100.50;105698;1256;96689;-70
2023/12/27 03:56:18;;;;;;;3.70;1.10;;;;;;;4.61;69.34;99108.35;105446;1256;97926;-70
2023/12/27 03:58:46;;;;;;;2.40;1.40;;;;;;;4.54;69.36;99092.17;105605;1251;109356;-71
2023/12/27 04:01:19;;;;;;;2.90;1.50;;;;;;;4.48;69.32;99088.59;105334;1257;97435;-70
2023/12/27 04:03:48;;;;;;;2.90;1.30;;;;;;;4.43;69.40;99096.58;105400;1251;107619;-71
2023/12/27 04:06:17;;;;;;;3.60;1.90;;;;;;;4.41;69.63;99102.61;105469;1253;96659;-72
2023/12/27 04:08:46;;;;;;;1.20;1.00;;;;;;;4.39;69.53;99096.92;105488;1256;96635;-71
2023/12/27 04:11:15;;;;;;;1.40;0.80;;;;;;;4.38;69.67;99095.21;105585;1254;110074;-71
2023/12/27 04:13:43;;;;;;;1.40;0.80;;;;;;;4.35;69.53;99097.64;105451;1256;96546;-70
2023/12/27 04:16:10;;;;;;;2.50;1.20;;;;;;;4.31;69.78;99106.05;105358;1253;107355;-70
2023/12/27 04:18:38;;;;;;;1.20;0.80;;;;;;;4.28;69.78;99109.04;105398;1251;96615;-71
2023/12/27 04:21:06;;;;;;;1.20;1.00;;;;;;;4.25;69.64;99115.86;105526;1254;96858;-71
2023/12/27 04:23:34;;;;;;;2.60;1.20;;;;;;;4.21;70.10;99117.77;105485;1256;109480;-71
2023/12/27 04:26:02;;;;;;;1.00;0.90;;;;;;;4.18;70.00;99118.95;105326;1257;97447;-71
2023/12/27 04:28:31;;;;;;;1.40;0.90;;;;;;;4.16;69.89;99127.66;105470;1256;107273;-71
2023/12/27 04:30:59;;;;;;;5.00;2.30;;;;;;;4.14;70.16;99132.28;105386;1256;96600;-70
2023/12/27 04:33:27;;;;;;;4.60;1.30;;;;;;;4.12;70.21;99135.00;105331;1257;96743;-70
2023/12/27 04:35:55;;;;;;;2.50;1.30;;;;;;;4.10;70.40;99135.27;105410;1256;110407;-70
2023/12/27 04:38:26;;;;;;;1.30;1.20;;;;;;;4.08;70.56;99143.81;105615;1253;96623;-71
2023/12/27 04:40:55;;;;;;;3.50;1.70;;;;;;;4.06;70.61;99157.05;105408;1257;107597;-71
2023/12/27 04:43:23;;;;;;;3.70;1.70;;;;;;;4.03;70.61;99159.12;105419;1256;96620;-70
2023/12/27 04:45:51;;;;;;;3.90;1.50;;;;;;;4.01;70.68;99158.33;105414;1256;96541;-74
2023/12/27 04:48:19;;;;;;;5.70;1.50;;;;;;;3.99;70.67;99164.74;105246;1264;109977;-71
2023/12/27 04:50:47;;;;;;;3.60;1.70;;;;;;;3.97;70.76;99169.19;105498;1256;96683;-70
2023/12/27 04:53:15;;;;;;;3.00;1.70;;;;;;;3.94;70.81;99174.23;105639;1257;107646;-72
2023/12/27 04:55:42;;;;;;;7.40;1.90;;;;;;;3.93;70.80;99180.95;105788;1254;97531;-70
2023/12/27 04:58:10;;;;;;;4.00;1.70;;;;;;;3.92;71.10;99182.73;105448;1256;96610;-71
2023/12/27 05:00:38;;;;;;;3.70;1.70;;;;;;;3.92;71.01;99194.66;105206;1257;109355;-71
2023/12/27 05:03:07;;;;;;;5.00;1.60;;;;;;;3.93;71.01;99196.06;105610;1257;98291;-71
2023/12/27 05:05:39;;;;;;;3.90;1.80;;;;;;;3.93;71.12;99196.21;105687;1252;107722;-72
2023/12/27 05:08:07;;;;;;;3.50;1.80;;;;;;;3.94;71.33;99197.73;105479;1256;96597;-71
2023/12/27 05:10:36;;;;;;;3.90;1.70;;;;;;;3.96;71.28;99205.92;105527;1256;97094;-71
2023/12/27 05:13:04;;;;;;;5.10;2.00;;;;;;;3.96;71.15;99208.91;105236;1256;110761;-73
2023/12/27 05:15:32;;;;;;;6.00;1.90;;;;;;;3.97;71.38;99212.72;105509;1251;96648;-72
2023/12/27 05:18:00;;;;;;;5.40;2.10;;;;;;;3.99;71.48;99206.47;105175;1256;107641;-72
2023/12/27 05:20:28;;;;;;;4.60;1.80;;;;;;;3.98;71.52;99207.04;105684;1256;96610;-71
2023/12/27 05:22:56;;;;;;;5.90;2.20;;;;;;;3.98;71.36;99205.66;105517;1255;97961;-71
2023/12/27 05:25:24;;;;;;;5.50;2.30;;;;;;;3.96;71.36;99207.84;105495;1256;109247;-72
2023/12/27 05:27:52;;;;;;;3.80;2.00;;;;;;;3.95;71.50;99211.02;105311;1256;97853;-70
2023/12/27 05:30:20;;;;;;;4.70;2.10;;;;;;;3.93;71.62;99214.64;105276;1257;105959;-70
2023/12/27 05:32:47;;;;;;;7.20;2.30;;;;;;;3.90;71.64;99217.40;105526;1255;96558;-71
2023/12/27 05:35:16;;;;;;;5.80;2.90;;;;;;;3.90;71.90;99216.89;105468;1256;97922;-70
2023/12/27 05:37:43;;;;;;;8.30;3.10;;;;;;;3.89;71.72;99221.65;105554;1255;109879;-71
2023/12/27 05:40:11;;;;;;;7.00;2.90;;;;;;;3.88;71.78;99223.95;105363;1257;97416;-72
2023/12/27 05:42:39;;;;;;;11.40;3.90;;;;;;;3.87;72.05;99227.50;105428;1251;107684;-72
2023/12/27 05:45:07;;;;;;;12.60;5.20;;;;;;;3.86;71.78;99237.04;105256;1256;96693;-71
2023/12/27 05:47:35;;;;;;;11.40;4.80;;;;;;;3.84;71.82;99245.18;105336;1256;97420;-71
2023/12/27 05:50:03;;;;;;;9.80;4.20;;;;;;;3.82;71.98;99246.70;105487;1253;109865;-71
2023/12/27 05:52:31;;;;;;;11.10;3.90;;;;;;;3.81;72.03;99252.33;105458;1256;96616;-71
2023/12/27 05:54:59;;;;;;;11.30;3.60;;;;;;;3.80;72.15;99251.67;105286;1256;107998;-71
2023/12/27 05:57:27;;;;;;;5.20;2.70;;;;;;;3.81;72.02;99258.85;105508;1257;96599;-71
2023/12/27 05:59:55;;;;;;;6.20;2.80;;;;;;;3.81;72.12;99265.15;105345;1251;96587;-72
2023/12/27 06:02:23;;;;;;;3.80;2.70;;;;;;;3.81;72.12;99274.29;106338;1255;109883;-71
2023/12/27 06:04:51;;;;;;;9.60;3.60;;;;;;;3.79;72.21;99278.21;105388;1251;96507;-71
2023/12/27 06:07:19;;;;;;;10.00;3.80;;;;;;;3.77;72.13;99276.36;108711;1250;107313;-70
2023/12/27 06:09:46;;;;;;;6.70;3.00;;;;;;;3.76;72.29;99281.50;108769;1251;94276;-69
2023/12/27 06:12:14;;;;;;;6.10;3.40;;;;;;;3.77;72.24;99286.73;108836;1251;94314;-69
2023/12/27 06:14:42;;;;;;;4.10;2.70;;;;;;;3.78;72.44;99293.86;108746;1254;109897;-71
2023/12/27 06:17:11;;;;;;;4.60;2.50;;;;;;;3.81;72.39;99297.77;108729;1251;95462;-70
2023/12/27 06:19:39;;;;;;;6.50;2.60;;;;;;;3.83;72.31;99299.98;108746;1253;107962;-70
2023/12/27 06:22:07;;;;;;;3.70;2.10;;;;;;;3.84;72.47;99299.03;105457;1256;96604;-72
2023/12/27 06:24:35;;;;;;;7.00;2.40;;;;;;;3.85;72.33;99302.36;105456;1254;96685;-70
2023/12/27 06:27:06;;;;;;;7.60;2.70;;;;;;;3.85;72.59;99311.80;105536;1253;109791;-70
2023/12/27 06:29:34;;;;;;;7.30;2.50;;;;;;;3.86;72.46;99317.03;105445;1257;96610;-70
2023/12/27 06:32:03;;;;;;;6.90;2.70;;;;;;;3.87;72.44;99321.05;105351;1257;107495;-70
2023/12/27 06:34:31;;;;;;;5.70;2.60;;;;;;;3.86;72.64;99328.95;105348;1256;97547;-71
2023/12/27 06:36:59;;;;;;;9.20;2.90;;;;;;;3.87;72.61;99338.91;105445;1256;96622;-71
2023/12/27 06:39:28;;;;;;;5.60;3.10;;;;;;;3.86;72.68;99338.96;105859;1254;110699;-69
2023/12/27 06:41:56;;;;;;;6.50;2.50;;;;;;;3.87;72.55;99346.83;105684;1253;96501;-72
2023/12/27 06:44:24;;;;;;;6.50;3.20;;;;;;;3.86;72.61;99355.27;105805;1256;108328;-70
2023/12/27 06:46:52;;;;;;;8.00;3.80;;;;;;;3.84;72.58;99357.80;105754;1256;96626;-73
2023/12/27 06:49:22;;;;;;;9.40;3.70;;;;;;;3.83;72.69;99362.96;105706;1251;96600;-71
2023/12/27 06:51:50;;;;;;;10.30;4.00;;;;;;;3.83;72.87;99371.38;105532;1251;109862;-70
2023/12/27 06:54:17;;;;;;;15.10;6.00;;;;;;;3.83;72.75;99377.17;105793;1251;96597;-73
2023/12/27 06:56:45;;;;;;;11.00;4.40;;;;;;;3.82;72.56;99378.08;105360;1251;107473;-70
2023/12/27 06:59:15;;;;;;;11.70;4.70;;;;;;;3.83;72.92;99379.45;105580;1256;96588;-70
2023/12/27 07:01:43;;;;;;;7.40;2.80;;;;;;;3.84;72.73;99391.34;106003;1251;96593;-72
2023/12/27 07:04:11;;;;;;;9.90;3.70;;;;;;;3.84;72.72;99395.00;105345;1255;109433;-72
2023/12/27 07:06:39;;;;;;;9.40;3.90;;;;;;;3.84;72.50;99396.25;105885;1255;96763;-73
2023/12/27 07:09:09;;;;;;;7.50;2.90;;;;;;;3.84;72.65;99404.48;105850;1255;108037;-72
2023/12/27 07:11:37;;;;;;;7.80;2.90;;;;;;;3.84;72.66;99406.07;105239;1256;96706;-73
2023/12/27 07:14:05;;;;;;;5.00;2.50;;;;;;;3.83;72.42;99409.61;105671;1256;96545;-73
2023/12/27 07:16:33;;;;;;;7.90;2.70;;;;;;;3.83;72.61;99410.85;105734;1252;110428;-72
2023/12/27 07:19:01;;;;;;;6.10;2.40;;;;;;;3.83;72.49;99420.16;105471;1251;96584;-73
2023/12/27 07:21:30;;;;;;;6.50;2.80;;;;;;;3.83;72.57;99425.77;105766;1251;107535;-72
2023/12/27 07:23:58;;;;;;;6.10;2.10;;;;;;;3.83;72.39;99423.67;105726;1251;96524;-71
2023/12/27 07:26:26;;;;;;;3.70;2.40;;;;;;;3.83;72.44;99428.21;105729;1256;96515;-69
2023/12/27 07:28:53;;;;;;;10.20;2.40;;;;;;;3.83;72.47;99434.88;105605;1258;109794;-71
2023/12/27 07:31:21;;;;;;;4.90;2.10;;;;;;;3.83;72.43;99438.91;105520;1251;97442;-71
2023/12/27 07:33:49;;;;;;;9.10;2.60;;;;;;;3.82;72.56;99450.19;105560;1256;107167;-71
2023/12/27 07:36:18;;;;;;;11.50;2.90;;;;;;;3.82;72.32;99459.48;105502;1254;96619;-70
2023/12/27 07:38:49;;;;;;;7.50;2.70;;;;;;;3.83;72.38;99460.67;105586;1256;96708;-70
2023/12/27 07:41:17;;;;;;;4.10;1.80;;;;;;;3.84;72.46;99465.37;105586;1252;109904;-73
2023/12/27 07:43:45;;;;;;;8.50;2.70;;;;;;;3.86;72.19;99464.59;105844;1251;96720;-74
2023/12/27 07:46:13;;;;;;;5.40;2.00;;;;;;;3.86;72.28;99466.52;105773;1256;107829;-74
2023/12/27 07:48:41;;;;;;;5.90;2.20;;;;;;;3.86;72.18;99472.13;105724;1256;97938;-78
2023/12/27 07:51:30;;;;;;;9.80;2.80;;;;;;;3.88;72.23;99477.66;105326;1260;96675;-74
2023/12/27 07:53:57;;;;;;;7.40;2.40;;;;;;;3.92;72.25;99481.20;105274;1256;109746;-73
2023/12/27 07:56:28;;;;;;;10.80;2.80;;;;;;;3.96;72.20;99479.46;105559;1256;96534;-73
2023/12/27 07:58:56;;;;;;;12.80;4.60;;;;;;;4.01;72.41;99479.97;105643;1257;106819;-73
2023/12/27 08:01:28;;;;;;;9.20;2.70;;;;;;;4.05;72.32;99481.95;105623;1251;97618;-74
2023/12/27 08:03:56;;;;;;;14.80;4.00;;;;;;;4.07;72.14;99486.44;105349;1257;96610;-73
2023/12/27 08:06:24;;;;;;;6.20;2.80;;;;;;;4.07;72.22;99490.98;105402;1256;109936;-72
2023/12/27 08:08:53;;;;;;;28.40;9.50;;;;;;;4.08;72.15;99497.41;105687;1256;96549;-73
2023/12/27 08:11:21;;;;;;;10.20;4.10;;;;;;;4.10;72.20;99498.05;105507;1253;105708;-77
2023/12/27 08:13:49;;;;;;;17.80;5.70;;;;;;;4.10;72.08;99501.73;105598;1255;96609;-73
2023/12/27 08:16:17;;;;;;;6.80;3.40;;;;;;;4.11;72.04;99504.70;105529;1256;96588;-75
2023/12/27 08:18:45;;;;;;;13.00;3.10;;;;;;;4.11;71.98;99502.94;105643;1256;109873;-74
2023/12/27 08:21:14;;;;;;;7.90;3.20;;;;;;;4.11;71.96;99506.25;105475;1255;96609;-74
2023/12/27 08:23:42;;;;;;;5.10;2.30;;;;;;;4.12;71.83;99503.59;105474;1259;107627;-74
2023/12/27 08:26:10;;;;;;;8.80;3.10;;;;;;;4.13;71.77;99510.39;105642;1257;96696;-73
2023/12/27 08:28:38;;;;;;;13.40;4.10;;;;;;;4.14;71.88;99520.52;107331;1256;96569;-75
2023/12/27 08:31:06;;;;;;;12.40;4.60;;;;;;;4.16;71.83;99530.66;105550;1253;109955;-73
2023/12/27 08:33:37;;;;;;;8.60;3.50;;;;;;;4.17;71.74;99535.00;105503;1256;96521;-74
2023/12/27 08:36:05;;;;;;;12.50;4.20;;;;;;;4.20;71.74;99533.65;105728;1261;108335;-74
2023/12/27 08:38:33;;;;;;;10.40;3.90;;;;;;;4.23;71.70;99539.33;105673;1256;96624;-73
2023/12/27 08:41:02;;;;;;;11.60;4.40;;;;;;;4.27;71.74;99542.72;106143;1256;96744;-74
2023/12/27 08:43:31;;;;;;;9.90;3.80;;;;;;;4.29;71.69;99548.20;105386;1259;109383;-74
2023/12/27 08:45:59;;;;;;;12.40;4.00;;;;;;;4.33;71.74;99556.33;105597;1256;96597;-74
2023/12/27 08:48:27;;;;;;;8.30;2.70;;;;;;;4.36;71.50;99559.20;105441;1253;107612;-75
2023/12/27 08:50:55;;;;;;;8.40;2.70;;;;;;;4.39;71.55;99564.88;105713;1256;96610;-74
2023/12/27 08:53:23;;;;;;;9.20;2.60;;;;;;;4.43;71.30;99571.95;105655;1254;96530;-74
2023/12/27 08:55:51;;;;;;;11.20;3.40;;;;;;;4.48;71.45;99583.15;105435;1253;108645;-74
2023/12/27 08:58:19;;;;;;;7.70;2.70;;;;;;;4.53;71.07;99591.01;108512;1253;95128;-72
2023/12/27 09:00:47;;;;;;;9.20;2.40;;;;;;;4.56;71.06;99599.15;108665;1253;106657;-72
2023/12/27 09:03:15;;;;;;;8.60;2.30;;;;;;;4.62;70.75;99606.66;108772;1251;94263;-73
2023/12/27 09:05:43;;;;;;;9.80;2.60;;;;;;;4.68;70.90;99606.44;108248;1251;96508;-73
2023/12/27 09:08:11;;;;;;;8.50;2.00;;;;;;;4.71;70.87;99615.42;105743;1251;109904;-74
2023/12/27 09:10:39;;;;;;;8.30;2.80;;;;;;;4.74;70.86;99608.12;105581;1256;97852;-74
2023/12/27 09:13:06;;;;;;;7.10;2.30;;;;;;;4.76;70.67;99617.70;105492;1256;107243;-74
2023/12/27 09:15:34;;;;;;;8.50;2.30;;;;;;;4.79;70.59;99620.76;105427;1254;96613;-75
2023/12/27 09:18:03;;;;;;;8.80;2.90;;;;;;;4.81;70.69;99618.02;105382;1251;97817;-73
2023/12/27 09:20:31;;;;;;;10.00;3.60;;;;;;;4.80;70.24;99627.21;105543;1256;109882;-73
2023/12/27 09:22:59;;;;;;;7.60;2.10;;;;;;;4.74;70.21;99631.45;105543;1251;96814;-73
2023/12/27 09:25:27;;;;;;;9.60;2.30;;;;;;;4.68;69.92;99635.08;105368;1251;107339;-74
2023/12/27 09:27:55;;;;;;;8.40;2.10;;;;;;;4.62;69.63;99634.08;105446;1256;96605;-74
2023/12/27 09:30:23;;;;;;;8.20;2.60;;;;;;;4.57;69.64;99641.25;105652;1251;96641;-74
2023/12/27 09:32:51;;;;;;;9.50;2.90;;;;;;;4.56;69.92;99637.27;105301;1257;109685;-73
2023/12/27 09:35:19;;;;;;;8.60;2.40;;;;;;;4.55;69.45;99636.45;105511;1257;96642;-73
2023/12/27 09:37:47;;;;;;;9.90;2.90;;;;;;;4.52;69.55;99638.81;105553;1264;107165;-74
2023/12/27 09:40:15;;;;;;;13.50;3.90;;;;;;;4.53;69.59;99637.91;105419;1257;97049;-73
2023/12/27 09:42:46;;;;;;;12.70;2.80;;;;;;;4.56;69.62;99643.96;105692;1251;96517;-74
2023/12/27 09:45:16;;;;;;;6.40;2.50;;;;;;;4.58;69.61;99639.65;105706;1251;110091;-73
2023/12/27 09:47:47;;;;;;;9.50;3.00;;;;;;;4.59;69.54;99638.58;105724;1257;97942;-73
2023/12/27 09:50:15;;;;;;;9.90;3.00;;;;;;;4.59;69.40;99643.83;105683;1257;108865;-74
2023/12/27 09:52:44;;;;;;;7.20;2.60;;;;;;;4.61;69.42;99634.98;105528;1256;97560;-74
2023/12/27 09:55:12;;;;;;;10.70;3.20;;;;;;;4.60;69.07;99636.42;105761;1253;96548;-74
2023/12/27 09:57:41;;;;;;;18.90;6.30;;;;;;;4.59;69.14;99638.77;105479;1263;109627;-73
2023/12/27 10:00:12;;;;;;;10.70;3.60;;;;;;;4.58;69.01;99644.21;105636;1254;97467;-76
2023/12/27 10:02:42;;;;;;;12.80;3.70;;;;;;;4.58;69.23;99644.95;105865;1255;107489;-74
2023/12/27 10:05:22;;;;;;;15.30;4.20;;;;;;;4.58;69.03;99646.34;105651;1256;96673;-76
2023/12/27 10:07:51;;;;;;;8.90;3.00;;;;;;;4.59;69.07;99652.29;105677;1255;96523;-74
2023/12/27 10:10:18;;;;;;;5.90;2.80;;;;;;;4.64;69.02;99652.98;105673;1256;109686;-73
2023/12/27 10:12:56;;;;;;;9.30;3.60;;;;;;;4.69;69.01;99654.50;105485;1256;97435;-73
2023/12/27 10:15:24;;;;;;;11.90;3.70;;;;;;;4.73;68.99;99654.17;105433;1256;107153;-74
2023/12/27 10:17:52;;;;;;;15.30;3.40;;;;;;;4.78;69.01;99652.92;105553;1256;96608;-72
2023/12/27 10:20:38;;;;;;;10.20;3.00;;;;;;;4.81;68.94;99652.28;105607;1256;96607;-73
2023/12/27 10:23:06;;;;;;;11.10;3.70;;;;;;;4.80;68.68;99652.33;105453;1255;109989;-74
2023/12/27 10:25:35;;;;;;;13.80;3.50;;;;;;;4.80;68.63;99651.83;105762;1264;95424;-74
2023/12/27 10:28:03;;;;;;;11.50;2.50;;;;;;;4.79;68.37;99654.33;105787;1257;107971;-74
2023/12/27 10:30:31;;;;;;;9.30;3.30;;;;;;;4.75;68.60;99655.52;105775;1254;96698;-74
2023/12/27 10:33:00;;;;;;;10.90;3.00;;;;;;;4.74;68.36;99656.08;105578;1251;97291;-73
2023/12/27 10:35:35;;;;;;;8.40;2.60;;;;;;;4.72;68.46;99653.52;105427;1256;109905;-72
2023/12/27 10:38:04;;;;;;;9.30;2.70;;;;;;;4.71;68.30;99654.43;105437;1254;96575;-72
2023/12/27 10:40:35;;;;;;;10.40;3.50;;;;;;;4.71;68.33;99657.77;105550;1257;107498;-72
2023/12/27 10:43:07;;;;;;;14.20;3.70;;;;;;;4.72;68.48;99657.02;105505;1256;96602;-73
2023/12/27 10:45:37;;;;;;;9.80;2.50;;;;;;;4.75;68.46;99650.44;105788;1254;96587;-76
2023/12/27 10:48:06;;;;;;;14.20;3.60;;;;;;;4.73;68.36;99655.73;105730;1251;111264;-74
2023/12/27 10:50:34;;;;;;;12.30;3.00;;;;;;;4.70;68.24;99652.35;105593;1260;97626;-75
2023/12/27 10:53:07;;;;;;;16.50;3.40;;;;;;;4.68;68.35;99650.89;105515;1251;108035;-75
2023/12/27 10:55:37;;;;;;;7.70;2.20;;;;;;;4.68;68.38;99645.27;105759;1256;97035;-76
2023/12/27 10:58:11;;;;;;;8.80;3.00;;;;;;;4.72;68.37;99645.77;105911;1256;96634;-75
2023/12/27 11:03:36;;;;;;;9.80;3.10;;;;;;;4.89;68.29;99649.69;102024;1295;637946;-76
2023/12/27 11:06:05;;;;;;;21.20;5.00;;;;;;;4.94;68.22;99647.73;104440;1269;94348;-76
2023/12/27 11:08:35;;;;;;;14.60;3.80;;;;;;;4.98;68.12;99649.33;105153;1261;94368;-74
2023/12/27 11:11:04;;;;;;;11.10;3.50;;;;;;;5.04;68.21;99648.22;104993;1265;108526;-75
2023/12/27 11:13:33;;;;;;;12.50;3.60;;;;;;;5.08;68.18;99646.34;104893;1265;95273;-73
2023/12/27 11:16:02;;;;;;;14.30;3.50;;;;;;;5.10;68.05;99637.09;104931;1265;108282;-75
2023/12/27 11:18:33;;;;;;;12.20;3.80;;;;;;;5.13;68.24;99642.40;105065;1263;94299;-74
2023/12/27 11:21:02;;;;;;;14.30;3.40;;;;;;;5.17;68.01;99639.98;105340;1260;94356;-73
2023/12/27 11:23:30;;;;;;;9.40;2.80;;;;;;;5.18;67.71;99640.98;105275;1259;106148;-74
2023/12/27 11:26:00;;;;;;;8.30;3.00;;;;;;;5.18;67.69;99643.27;104843;1262;95758;-73
2023/12/27 11:28:31;;;;;;;8.80;2.80;;;;;;;5.20;67.77;99634.90;105086;1259;107640;-73
2023/12/27 11:30:59;;;;;;;9.00;3.30;;;;;;;5.20;67.45;99637.71;105052;1259;95293;-73
2023/12/27 11:33:27;;;;;;;25.40;7.10;;;;;;;5.18;67.43;99632.70;105053;1262;95286;-74
2023/12/27 11:36:02;;;;;;;16.80;6.20;;;;;;;5.20;67.65;99636.83;105256;1262;109009;-73